Time;durP1;ratioP1;P1;durP2;ratioP2;P2;SDS_P1;SDS_P2;PMS_P1;PMS_P2;Temp;Humidity;BMP_temperature;BMP_pressure;BME280_temperature;BME280_humidity;BME280_pressure;Samples;Min_cycle;Max_cycle;Signal;HPM_P1;HPM_P2
2023/01/10 00:01:07;;;;;;;19.88;11.90;;;5.80;99.90;;;;;;5038270;28;20037;-54
2023/01/10 00:03:33;;;;;;;20.00;12.70;;;5.90;99.90;;;;;;5035998;28;20076;-56
2023/01/10 00:05:58;;;;;;;23.65;12.52;;;5.80;99.90;;;;;;5037172;28;20052;-51
2023/01/10 00:08:24;;;;;;;23.85;12.82;;;5.80;99.90;;;;;;5039139;28;20545;-55
2023/01/10 00:10:50;;;;;;;25.27;12.50;;;5.80;99.90;;;;;;5018147;28;20025;-59
2023/01/10 00:13:22;;;;;;;15.88;10.82;;;5.80;99.90;;;;;;5038357;28;20078;-57
2023/01/10 00:15:48;;;;;;;22.35;11.02;;;5.80;99.90;;;;;;5034290;28;20057;-61
2023/01/10 00:18:14;;;;;;;17.58;9.98;;;5.80;99.90;;;;;;5035041;28;20018;-59
2023/01/10 00:20:39;;;;;;;17.33;10.30;;;5.80;99.90;;;;;;5039667;28;20150;-60
2023/01/10 00:23:05;;;;;;;22.48;10.70;;;5.80;99.90;;;;;;5035318;28;20029;-57
2023/01/10 00:25:33;;;;;;;21.50;10.27;;;5.80;99.90;;;;;;5035604;28;20029;-57
2023/01/10 00:30:43;;;;;;;14.98;9.52;;;5.80;99.90;;;;;;5042314;28;20452;-54
2023/01/10 00:33:16;;;;;;;21.77;9.93;;;5.80;99.90;;;;;;5036586;28;20029;-58
2023/01/10 00:35:41;;;;;;;19.50;9.82;;;5.80;99.90;;;;;;5035774;28;20017;-56
2023/01/10 00:38:07;;;;;;;20.00;9.77;;;5.80;99.90;;;;;;5037533;28;20025;-55
2023/01/10 00:40:32;;;;;;;17.92;10.00;;;5.80;99.90;;;;;;5022056;28;20029;-58
2023/01/10 00:45:47;;;;;;;14.48;9.23;;;5.80;99.90;;;;;;5039792;28;20041;-58
2023/01/10 00:48:16;;;;;;;11.65;7.65;;;5.70;99.90;;;;;;5037582;28;20608;-57
2023/01/10 00:50:42;;;;;;;20.08;8.52;;;5.70;99.90;;;;;;5038170;28;20440;-57
2023/01/10 00:53:08;;;;;;;15.90;8.85;;;5.80;99.90;;;;;;5034861;28;20059;-57
2023/01/10 00:55:35;;;;;;;16.60;7.82;;;5.70;99.90;;;;;;5035537;28;20029;-58
2023/01/10 00:58:00;;;;;;;14.85;8.40;;;5.70;99.90;;;;;;5041237;28;20436;-58
2023/01/10 01:00:26;;;;;;;18.73;8.25;;;5.80;99.90;;;;;;5038166;28;20029;-58
2023/01/10 01:02:52;;;;;;;14.88;8.05;;;5.80;99.90;;;;;;5036453;28;20519;-58
2023/01/10 01:05:18;;;;;;;15.57;8.88;;;5.80;99.90;;;;;;5034090;28;20025;-59
2023/01/10 01:07:46;;;;;;;16.65;8.25;;;5.80;99.90;;;;;;5037763;28;20520;-59
2023/01/10 01:10:26;;;;;;;15.02;7.30;;;5.70;99.90;;;;;;5038022;28;20028;-59
2023/01/10 01:12:53;;;;;;;15.02;8.25;;;5.70;99.90;;;;;;5021089;28;20036;-58
2023/01/10 01:15:18;;;;;;;18.80;7.93;;;5.70;99.90;;;;;;5034132;28;20030;-56
2023/01/10 01:17:44;;;;;;;14.32;7.82;;;5.70;99.90;;;;;;5036654;28;20166;-58
2023/01/10 01:20:10;;;;;;;14.57;7.60;;;5.70;99.90;;;;;;5034754;28;20029;-56
2023/01/10 01:22:36;;;;;;;11.25;6.47;;;5.70;99.90;;;;;;5017004;28;20032;-56
2023/01/10 01:25:03;;;;;;;12.02;6.38;;;5.60;99.90;;;;;;5036590;28;20024;-61
2023/01/10 01:27:30;;;;;;;17.17;6.07;;;5.60;99.90;;;;;;5037217;28;20025;-57
2023/01/10 01:29:55;;;;;;;13.75;6.47;;;5.60;99.90;;;;;;5036667;28;20115;-58
2023/01/10 01:32:21;;;;;;;15.05;7.05;;;5.50;99.90;;;;;;5036619;28;20536;-58
2023/01/10 01:34:46;;;;;;;17.80;6.50;;;5.50;99.90;;;;;;5035848;28;20029;-58
2023/01/10 01:37:12;;;;;;;10.98;5.90;;;5.50;99.90;;;;;;5034259;28;20052;-59
2023/01/10 01:39:38;;;;;;;16.25;5.97;;;5.40;99.90;;;;;;5032404;28;20034;-55
2023/01/10 01:42:04;;;;;;;11.98;6.32;;;5.40;99.90;;;;;;5036390;28;20021;-58
2023/01/10 01:44:32;;;;;;;15.85;6.18;;;5.40;99.90;;;;;;5036194;28;20029;-60
2023/01/10 01:47:18;;;;;;;22.02;6.32;;;5.40;99.90;;;;;;5035743;28;20033;-57
2023/01/10 01:49:44;;;;;;;13.65;5.90;;;5.40;99.90;;;;;;5034844;28;20071;-56
2023/01/10 01:52:21;;;;;;;10.63;5.90;;;5.40;99.90;;;;;;5035157;28;20082;-55
2023/01/10 01:54:47;;;;;;;7.93;4.80;;;5.40;99.90;;;;;;5037008;28;20033;-59
2023/01/10 01:57:18;;;;;;;13.40;5.45;;;5.30;99.90;;;;;;5033977;28;20030;-60
2023/01/10 01:59:48;;;;;;;16.13;6.72;;;5.30;99.90;;;;;;5032449;28;20025;-55
2023/01/10 02:02:19;;;;;;;13.38;6.22;;;5.40;99.90;;;;;;5035859;28;20116;-54
2023/01/10 02:05:04;;;;;;;13.43;5.57;;;5.30;99.90;;;;;;5032839;28;20036;-54
2023/01/10 02:07:36;;;;;;;14.18;5.22;;;5.30;99.90;;;;;;5033883;28;20040;-60
2023/01/10 02:10:07;;;;;;;14.43;5.75;;;5.30;99.90;;;;;;5038273;28;20033;-56
2023/01/10 02:12:34;;;;;;;15.90;5.32;;;5.30;99.90;;;;;;5017773;28;20531;-58
2023/01/10 02:15:00;;;;;;;15.30;6.30;;;5.30;99.90;;;;;;5019360;28;20020;-57
2023/01/10 02:17:26;;;;;;;14.43;6.15;;;5.30;99.90;;;;;;5036744;28;20082;-53
2023/01/10 02:19:51;;;;;;;12.40;6.35;;;5.30;99.90;;;;;;5034544;28;20037;-59
2023/01/10 02:22:40;;;;;;;11.30;5.38;;;5.30;99.90;;;;;;5035283;28;20100;-53
2023/01/10 02:25:25;;;;;;;14.18;5.78;;;5.30;99.90;;;;;;5016603;28;20018;-54
2023/01/10 02:28:13;;;;;;;14.35;6.00;;;5.30;99.90;;;;;;5037577;28;20479;-59
2023/01/10 02:31:14;;;;;;;10.48;5.22;;;5.30;99.90;;;;;;5037818;28;20037;-58
2023/01/10 02:34:03;;;;;;;14.25;5.55;;;5.20;99.90;;;;;;4997287;28;20090;-58
2023/01/10 02:36:48;;;;;;;13.82;6.18;;;5.20;99.90;;;;;;5035024;28;20029;-56
2023/01/10 02:39:41;;;;;;;10.95;5.72;;;5.30;99.90;;;;;;5034912;28;20099;-57
2023/01/10 02:42:10;;;;;;;9.77;5.20;;;5.30;99.90;;;;;;5035642;28;20036;-58
2023/01/10 02:44:49;;;;;;;14.52;5.53;;;5.30;99.90;;;;;;5037686;28;20033;-58
2023/01/10 02:47:15;;;;;;;11.27;5.15;;;5.30;99.90;;;;;;5036821;28;20025;-59
2023/01/10 02:49:50;;;;;;;12.52;5.25;;;5.20;99.90;;;;;;5034237;28;20029;-58
2023/01/10 02:52:28;;;;;;;9.95;5.60;;;5.20;99.90;;;;;;5037844;28;20043;-58
2023/01/10 02:55:00;;;;;;;10.80;5.20;;;5.20;99.90;;;;;;5015378;28;20075;-56
2023/01/10 02:57:47;;;;;;;8.40;5.05;;;5.20;99.90;;;;;;5036502;28;20446;-56
2023/01/10 03:00:31;;;;;;;;;;;5.20;99.90;;;;;;5040327;28;20394;-60
2023/01/10 03:03:11;;;;;;;9.80;4.97;;;5.20;99.90;;;;;;5039238;28;19928;-56
2023/01/10 03:05:49;;;;;;;8.95;4.68;;;5.20;99.90;;;;;;5040286;28;20036;-59
2023/01/10 03:08:32;;;;;;;12.27;4.85;;;5.20;99.90;;;;;;5037665;28;20171;-57
2023/01/10 03:11:04;;;;;;;9.40;4.75;;;5.20;99.90;;;;;;5038914;28;20025;-56
2023/01/10 03:13:51;;;;;;;11.68;4.80;;;5.20;99.90;;;;;;5036822;28;20417;-58
2023/01/10 03:16:18;;;;;;;;;;;5.20;99.90;;;;;;5021562;28;20396;-54
2023/01/10 03:18:50;;;;;;;;;;;5.20;99.90;;;;;;5041158;28;19909;-60
2023/01/10 03:21:18;;;;;;;9.20;4.68;;;5.20;99.90;;;;;;5039261;28;19996;-59
2023/01/10 03:23:46;;;;;;;10.63;4.35;;;5.20;99.90;;;;;;5039567;28;20072;-58
2023/01/10 03:26:13;;;;;;;9.00;4.55;;;5.10;99.90;;;;;;5039010;28;20032;-58
2023/01/10 03:28:51;;;;;;;9.98;4.82;;;5.10;99.90;;;;;;5039741;28;20960;-58
2023/01/10 03:31:22;;;;;;;9.43;4.20;;;5.10;99.90;;;;;;5020015;28;20592;-57
2023/01/10 03:33:48;;;;;;;9.77;4.63;;;5.10;99.90;;;;;;5037200;28;20374;-56
2023/01/10 03:36:36;;;;;;;9.00;4.55;;;5.00;99.90;;;;;;5039330;28;20100;-61
2023/01/10 03:39:23;;;;;;;10.18;3.60;;;5.00;99.90;;;;;;5040123;28;20083;-60
2023/01/10 03:42:28;;;;;;;15.77;4.50;;;5.00;99.90;;;;;;5036080;28;20028;-57
2023/01/10 03:45:12;;;;;;;11.75;3.75;;;4.90;99.90;;;;;;5000191;28;20392;-56
2023/01/10 03:47:40;;;;;;;8.90;3.45;;;4.90;99.90;;;;;;5039861;28;20037;-54
2023/01/10 03:50:09;;;;;;;11.05;3.95;;;4.80;99.90;;;;;;5039643;28;20462;-58
2023/01/10 03:52:36;;;;;;;10.13;3.97;;;4.70;99.90;;;;;;5037188;28;20028;-56
2023/01/10 03:55:04;;;;;;;10.48;3.97;;;4.70;99.90;;;;;;5035329;28;20533;-55
2023/01/10 03:57:29;;;;;;;8.27;4.15;;;4.60;99.90;;;;;;5019971;28;20033;-60
2023/01/10 03:59:57;;;;;;;6.78;3.88;;;4.60;99.90;;;;;;5039473;28;20066;-57
2023/01/10 04:02:27;;;;;;;12.20;4.40;;;4.60;99.90;;;;;;5041394;28;20017;-56
2023/01/10 04:04:52;;;;;;;9.68;4.15;;;4.60;99.90;;;;;;5035560;28;20028;-58
2023/01/10 04:07:18;;;;;;;11.23;3.85;;;4.60;99.90;;;;;;5038369;28;20021;-57
2023/01/10 04:09:43;;;;;;;6.25;4.00;;;4.60;99.90;;;;;;5039836;28;20029;-58
2023/01/10 04:12:09;;;;;;;8.48;4.20;;;4.60;99.90;;;;;;5035233;28;20029;-58
2023/01/10 04:14:34;;;;;;;9.32;4.22;;;4.60;99.90;;;;;;5035079;28;20017;-57
2023/01/10 04:17:00;;;;;;;12.65;4.07;;;4.50;99.90;;;;;;5038117;28;20492;-57
2023/01/10 04:19:26;;;;;;;8.38;3.60;;;4.50;99.90;;;;;;5038512;28;20094;-56
2023/01/10 04:21:51;;;;;;;8.02;3.47;;;4.50;99.90;;;;;;5039244;28;20025;-57
2023/01/10 04:24:17;;;;;;;7.97;4.00;;;4.50;99.90;;;;;;5036372;28;20053;-60
2023/01/10 04:26:43;;;;;;;16.08;4.15;;;4.50;99.90;;;;;;5037547;28;20029;-57
2023/01/10 04:29:09;;;;;;;7.50;3.28;;;4.50;99.90;;;;;;5019354;28;20049;-55
2023/01/10 04:31:35;;;;;;;12.00;3.60;;;4.50;99.90;;;;;;5017138;28;20055;-56
2023/01/10 04:34:00;;;;;;;9.52;3.22;;;4.50;99.90;;;;;;5037857;28;20382;-55
2023/01/10 04:36:26;;;;;;;12.80;4.93;;;4.50;99.90;;;;;;5039330;28;20036;-57
2023/01/10 04:38:52;;;;;;;12.65;3.25;;;4.50;99.90;;;;;;5035479;28;20548;-59
2023/01/10 04:41:17;;;;;;;10.07;3.90;;;4.60;99.90;;;;;;5038825;28;20079;-54
2023/01/10 04:43:43;;;;;;;7.90;3.80;;;4.60;99.90;;;;;;5038913;28;20099;-58
2023/01/10 04:46:08;;;;;;;7.47;3.72;;;4.60;99.90;;;;;;5035338;28;20101;-60
2023/01/10 04:48:36;;;;;;;8.73;3.08;;;4.60;99.90;;;;;;5035540;28;20035;-59
2023/01/10 04:51:02;;;;;;;12.95;3.67;;;4.60;99.90;;;;;;5038009;28;20018;-56
2023/01/10 04:53:27;;;;;;;12.25;3.80;;;4.60;99.90;;;;;;5022057;28;20150;-58
2023/01/10 04:55:53;;;;;;;11.60;3.42;;;4.60;99.90;;;;;;5016777;28;20545;-59
2023/01/10 04:58:18;;;;;;;14.50;3.80;;;4.70;99.90;;;;;;5036968;28;20097;-56
2023/01/10 05:00:45;;;;;;;15.20;3.53;;;4.60;99.90;;;;;;5037314;28;20048;-59
2023/01/10 05:03:11;;;;;;;11.45;3.60;;;4.70;99.90;;;;;;5037143;28;20025;-59
2023/01/10 05:05:36;;;;;;;12.23;4.13;;;4.70;99.90;;;;;;5016217;28;20022;-58
2023/01/10 05:08:02;;;;;;;7.97;3.35;;;4.70;99.90;;;;;;5037667;28;20134;-57
2023/01/10 05:10:27;;;;;;;6.80;2.80;;;4.70;99.90;;;;;;5037232;28;20029;-57
2023/01/10 05:12:53;;;;;;;9.68;3.58;;;4.70;99.90;;;;;;5035307;28;20101;-58
2023/01/10 05:15:20;;;;;;;10.30;3.05;;;4.70;99.90;;;;;;5035970;28;20018;-55
2023/01/10 05:17:45;;;;;;;10.55;3.25;;;4.70;99.90;;;;;;5036696;28;20020;-59
2023/01/10 05:20:12;;;;;;;6.50;2.78;;;4.70;99.90;;;;;;5020214;28;20091;-59
2023/01/10 05:22:38;;;;;;;12.95;3.67;;;4.70;99.90;;;;;;5016977;28;20048;-60
2023/01/10 05:25:04;;;;;;;10.55;3.42;;;4.70;99.90;;;;;;5033948;28;20029;-60
2023/01/10 05:27:30;;;;;;;6.63;3.25;;;4.70;99.90;;;;;;5037710;28;20029;-58
2023/01/10 05:29:55;;;;;;;8.77;3.20;;;4.70;99.90;;;;;;5036686;28;20017;-58
2023/01/10 05:32:21;;;;;;;5.75;2.92;;;4.70;99.90;;;;;;5039455;28;20037;-57
2023/01/10 05:34:47;;;;;;;10.43;3.63;;;4.70;99.90;;;;;;5038618;28;20021;-59
2023/01/10 05:37:12;;;;;;;10.32;3.60;;;4.70;99.90;;;;;;5035605;28;20521;-57
2023/01/10 05:39:40;;;;;;;11.02;2.60;;;4.70;99.90;;;;;;5035433;28;20508;-57
2023/01/10 05:42:05;;;;;;;10.27;2.97;;;4.70;99.90;;;;;;5033659;28;20032;-57
2023/01/10 05:44:31;;;;;;;9.32;2.72;;;4.70;99.90;;;;;;5018711;28;20040;-54
2023/01/10 05:46:57;;;;;;;8.90;3.72;;;4.70;99.90;;;;;;5038143;28;20032;-58
2023/01/10 05:49:22;;;;;;;6.50;2.83;;;4.70;99.90;;;;;;5039434;28;20029;-58
2023/01/10 05:51:48;;;;;;;13.95;3.28;;;4.70;99.90;;;;;;5037947;28;20156;-60
2023/01/10 05:54:13;;;;;;;8.27;2.80;;;4.70;99.90;;;;;;5038139;28;20037;-59
2023/01/10 05:56:39;;;;;;;10.30;3.13;;;4.70;99.90;;;;;;5037250;28;20034;-56
2023/01/10 05:59:04;;;;;;;6.13;2.40;;;4.60;99.90;;;;;;5035807;28;20087;-58
2023/01/10 06:01:30;;;;;;;14.68;5.90;;;4.60;99.90;;;;;;5035125;28;20037;-57
2023/01/10 06:03:55;;;;;;;11.73;3.83;;;4.60;99.90;;;;;;5034018;28;20071;-56
2023/01/10 06:06:21;;;;;;;7.68;2.53;;;4.60;99.90;;;;;;5018131;28;20029;-59
2023/01/10 06:08:46;;;;;;;9.13;3.47;;;4.60;99.90;;;;;;5018466;28;20029;-59
2023/01/10 06:11:12;;;;;;;18.30;3.70;;;4.50;99.90;;;;;;5016835;28;20033;-55
2023/01/10 06:13:37;;;;;;;8.27;3.00;;;4.50;99.90;;;;;;5036485;28;20103;-55
2023/01/10 06:16:04;;;;;;;13.77;3.45;;;4.50;99.90;;;;;;5015840;28;20017;-54
2023/01/10 06:18:29;;;;;;;13.32;2.97;;;4.40;99.90;;;;;;5036073;28;20100;-55
2023/01/10 06:20:55;;;;;;;9.73;3.03;;;4.40;99.90;;;;;;5017482;28;20018;-59
2023/01/10 06:23:20;;;;;;;6.97;2.00;;;4.40;99.90;;;;;;5035823;28;20029;-57
2023/01/10 06:25:46;;;;;;;9.88;3.13;;;4.40;99.90;;;;;;5035024;28;20033;-57
2023/01/10 06:28:13;;;;;;;7.47;2.40;;;4.40;99.90;;;;;;5036582;28;20033;-60
2023/01/10 06:30:42;;;;;;;10.55;3.03;;;4.30;99.90;;;;;;5035877;28;20403;-56
2023/01/10 06:33:09;;;;;;;8.32;2.97;;;4.30;99.90;;;;;;5034432;28;20021;-60
2023/01/10 06:35:35;;;;;;;12.38;3.80;;;4.20;99.90;;;;;;5036388;28;20052;-56
2023/01/10 06:38:01;;;;;;;8.07;2.80;;;4.20;99.90;;;;;;5043175;28;20021;-57
2023/01/10 06:40:27;;;;;;;8.40;2.90;;;4.20;99.90;;;;;;5023007;28;20032;-58
2023/01/10 06:42:53;;;;;;;12.52;2.45;;;4.20;99.90;;;;;;5041713;28;20021;-59
2023/01/10 06:45:19;;;;;;;6.88;2.42;;;4.10;99.90;;;;;;5038612;28;20032;-59
2023/01/10 06:47:44;;;;;;;9.80;2.67;;;4.10;99.90;;;;;;5040550;28;20017;-58
2023/01/10 06:50:11;;;;;;;7.53;3.30;;;4.20;99.90;;;;;;5038976;28;20025;-58
2023/01/10 06:52:37;;;;;;;8.35;3.40;;;4.10;99.90;;;;;;5037927;28;20041;-59
2023/01/10 06:55:03;;;;;;;9.93;3.13;;;4.10;99.90;;;;;;5037082;28;20049;-58
2023/01/10 06:57:29;;;;;;;4.60;2.78;;;4.10;99.90;;;;;;5037942;28;20087;-58
2023/01/10 06:59:54;;;;;;;11.98;3.03;;;4.10;99.90;;;;;;5043057;28;20017;-60
2023/01/10 07:02:20;;;;;;;8.18;2.33;;;4.10;99.90;;;;;;5037224;28;20572;-60
2023/01/10 07:04:47;;;;;;;8.57;2.50;;;4.00;99.90;;;;;;5038895;28;20021;-59
2023/01/10 07:07:13;;;;;;;7.70;3.22;;;4.00;99.90;;;;;;5037801;28;20370;-58
2023/01/10 07:09:38;;;;;;;11.82;3.53;;;4.00;99.90;;;;;;5038617;28;20071;-61
2023/01/10 07:12:04;;;;;;;9.50;3.45;;;4.00;99.90;;;;;;5039321;28;20412;-58
2023/01/10 07:14:29;;;;;;;12.25;3.03;;;4.00;99.90;;;;;;5036490;28;20041;-60
2023/01/10 07:16:55;;;;;;;14.63;3.42;;;4.00;99.90;;;;;;5040058;28;20079;-58
2023/01/10 07:19:21;;;;;;;9.43;3.60;;;3.90;99.90;;;;;;5040173;28;20021;-61
2023/01/10 07:21:46;;;;;;;11.00;3.85;;;4.00;99.90;;;;;;5019292;28;20021;-58
2023/01/10 07:24:12;;;;;;;8.27;2.50;;;4.00;99.90;;;;;;5041419;28;20120;-59
2023/01/10 07:26:37;;;;;;;10.23;3.40;;;4.00;99.90;;;;;;5039629;28;20063;-59
2023/01/10 07:29:03;;;;;;;6.95;2.67;;;3.90;99.90;;;;;;5021747;28;20045;-61
2023/01/10 07:31:28;;;;;;;10.10;4.22;;;3.90;99.90;;;;;;5036073;28;20026;-59
2023/01/10 07:33:54;;;;;;;10.77;4.70;;;3.90;99.90;;;;;;5036534;28;20579;-58
2023/01/10 07:36:20;;;;;;;14.48;5.78;;;3.90;99.90;;;;;;5035261;28;20064;-58
2023/01/10 07:38:45;;;;;;;13.38;5.53;;;3.90;99.90;;;;;;5036879;28;20018;-59
2023/01/10 07:41:11;;;;;;;7.40;5.57;;;3.90;99.90;;;;;;5036233;28;20505;-60
2023/01/10 07:43:36;;;;;;;12.63;6.05;;;3.90;99.90;;;;;;5040503;28;20587;-58
2023/01/10 07:46:08;;;;;;;18.55;9.50;;;3.90;99.90;;;;;;5036239;28;20025;-58
2023/01/10 07:48:34;;;;;;;12.88;9.30;;;3.90;99.90;;;;;;5035789;28;20061;-60
2023/01/10 07:51:00;;;;;;;11.35;6.93;;;3.80;99.90;;;;;;5037906;28;20275;-56
2023/01/10 07:53:27;;;;;;;12.60;5.00;;;3.90;99.90;;;;;;5036252;28;20024;-59
2023/01/10 07:55:57;;;;;;;18.25;5.25;;;3.80;99.90;;;;;;5038000;28;20029;-57
2023/01/10 07:58:23;;;;;;;16.38;4.88;;;3.80;99.90;;;;;;5036014;28;20108;-58
2023/01/10 08:00:49;;;;;;;9.48;3.63;;;3.80;99.90;;;;;;5038478;28;20176;-61
2023/01/10 08:03:16;;;;;;;8.75;4.10;;;3.80;99.90;;;;;;5037617;28;20396;-59
2023/01/10 08:05:42;;;;;;;10.35;4.00;;;3.80;99.90;;;;;;5037372;28;20029;-59
2023/01/10 08:08:10;;;;;;;15.80;3.97;;;3.70;99.90;;;;;;5037882;28;20558;-58
2023/01/10 08:10:37;;;;;;;12.98;3.47;;;3.80;99.90;;;;;;5037821;28;20037;-59
2023/01/10 08:13:02;;;;;;;11.73;4.35;;;3.70;99.90;;;;;;5038202;28;20035;-60
2023/01/10 08:15:28;;;;;;;12.13;4.72;;;3.70;99.90;;;;;;5037280;28;20020;-57
2023/01/10 08:17:54;;;;;;;6.85;3.65;;;3.70;99.90;;;;;;5037513;28;20045;-57
2023/01/10 08:20:19;;;;;;;5.40;3.60;;;3.80;99.90;;;;;;5038014;28;20043;-58
2023/01/10 08:22:45;;;;;;;12.63;4.05;;;3.80;99.90;;;;;;5038235;28;20036;-58
2023/01/10 08:25:11;;;;;;;12.75;4.40;;;3.80;99.90;;;;;;5037212;28;20104;-60
2023/01/10 08:27:37;;;;;;;16.38;4.90;;;3.90;99.90;;;;;;5038291;28;20446;-61
2023/01/10 08:30:04;;;;;;;12.85;4.85;;;3.90;99.90;;;;;;5019469;28;20056;-58
2023/01/10 08:32:30;;;;;;;13.23;4.85;;;3.90;99.90;;;;;;5037239;28;20037;-57
2023/01/10 08:34:56;;;;;;;12.68;4.47;;;4.00;99.90;;;;;;5037220;28;20021;-58
2023/01/10 08:37:22;;;;;;;17.65;5.00;;;4.00;99.90;;;;;;5037661;28;20484;-58
2023/01/10 08:39:47;;;;;;;13.52;4.97;;;4.10;99.90;;;;;;5020133;28;20063;-58
2023/01/10 08:42:15;;;;;;;19.30;4.57;;;4.20;99.90;;;;;;5019780;28;20025;-58
2023/01/10 08:44:40;;;;;;;13.45;6.15;;;4.20;99.90;;;;;;5036482;28;20068;-60
2023/01/10 08:47:06;;;;;;;19.45;5.80;;;4.30;99.90;;;;;;5037921;28;20053;-58
2023/01/10 08:49:31;;;;;;;15.32;5.75;;;4.30;99.90;;;;;;5037005;28;20036;-59
2023/01/10 08:51:57;;;;;;;12.38;6.30;;;4.30;99.90;;;;;;5037627;28;20033;-58
2023/01/10 08:54:22;;;;;;;11.73;5.82;;;4.40;99.90;;;;;;5037304;28;20026;-60
2023/01/10 08:56:48;;;;;;;20.17;6.15;;;4.40;99.90;;;;;;5035927;28;20096;-58
2023/01/10 08:59:14;;;;;;;16.80;6.93;;;4.50;99.90;;;;;;5036744;28;20045;-60
2023/01/10 09:01:40;;;;;;;15.30;6.57;;;4.50;99.90;;;;;;5037067;28;20021;-59
2023/01/10 09:04:05;;;;;;;23.90;5.82;;;4.60;99.90;;;;;;5036980;28;20029;-56
2023/01/10 09:06:31;;;;;;;21.42;7.88;;;4.60;99.90;;;;;;5037625;28;20025;-52
2023/01/10 09:08:56;;;;;;;21.80;7.00;;;4.70;99.90;;;;;;5037466;28;20528;-56
2023/01/10 09:11:22;;;;;;;15.48;7.72;;;4.70;99.90;;;;;;5037181;28;20033;-58
2023/01/10 09:13:49;;;;;;;21.42;7.63;;;4.80;99.90;;;;;;5037176;28;20098;-54
2023/01/10 09:16:15;;;;;;;11.55;5.55;;;4.70;99.90;;;;;;5036388;28;20017;-53
2023/01/10 09:18:41;;;;;;;17.40;5.90;;;4.70;99.90;;;;;;5019525;28;20545;-56
2023/01/10 09:21:07;;;;;;;16.65;6.60;;;4.70;99.90;;;;;;5037263;28;20132;-60
2023/01/10 09:23:32;;;;;;;14.90;6.40;;;4.70;99.90;;;;;;5037250;28;20035;-61
2023/01/10 09:25:59;;;;;;;13.95;7.22;;;4.70;99.90;;;;;;5037256;28;20036;-60
2023/01/10 09:28:25;;;;;;;22.42;7.95;;;4.70;99.90;;;;;;5037240;28;20049;-60
2023/01/10 09:30:51;;;;;;;12.63;7.03;;;4.80;99.90;;;;;;5036898;28;20513;-60
2023/01/10 09:33:17;;;;;;;12.32;7.53;;;4.80;99.90;;;;;;5061787;22;20049;-57
2023/01/10 09:35:43;;;;;;;21.85;7.80;;;4.80;99.90;;;;;;5024875;28;20060;-56
2023/01/10 09:38:15;;;;;;;19.33;7.00;;;4.80;99.90;;;;;;5047138;28;20049;-54
2023/01/10 09:41:18;;;;;;;16.63;8.38;;;4.90;99.90;;;;;;5047415;28;20025;-53
2023/01/10 09:43:59;;;;;;;21.20;9.23;;;5.00;99.90;;;;;;5047482;28;20526;-54
2023/01/10 09:46:56;;;;;;;16.42;7.47;;;5.00;99.90;;;;;;5047193;28;20104;-53
2023/01/10 09:49:46;;;;;;;28.85;9.82;;;5.10;99.90;;;;;;5029028;28;20082;-54
2023/01/10 09:52:33;;;;;;;15.90;8.35;;;5.10;99.90;;;;;;5047071;28;20063;-57
2023/01/10 09:55:17;;;;;;;18.25;8.35;;;5.20;99.90;;;;;;5046242;28;20041;-55
2023/01/10 09:57:43;;;;;;;15.02;8.48;;;5.30;99.90;;;;;;5046985;28;20024;-56
2023/01/10 10:00:19;;;;;;;17.30;8.50;;;5.30;99.90;;;;;;5046778;28;20051;-53
2023/01/10 10:02:48;;;;;;;19.20;8.73;;;5.40;99.90;;;;;;5046790;28;20654;-55
2023/01/10 10:05:19;;;;;;;13.95;8.70;;;5.40;99.90;;;;;;5046272;28;20033;-55
2023/01/10 10:07:49;;;;;;;16.48;9.18;;;5.40;99.90;;;;;;5029050;28;20029;-56
2023/01/10 10:10:24;;;;;;;18.40;9.88;;;5.40;99.90;;;;;;5046026;28;20723;-56
2023/01/10 10:13:05;;;;;;;21.17;10.88;;;5.40;99.90;;;;;;5046075;28;20043;-52
2023/01/10 10:15:59;;;;;;;17.58;9.27;;;5.50;99.90;;;;;;5045867;28;20140;-53
2023/01/10 10:18:55;;;;;;;20.33;10.07;;;5.50;99.90;;;;;;5046596;28;20032;-54
2023/01/10 10:21:44;;;;;;;18.70;9.38;;;5.50;99.90;;;;;;5045970;28;20021;-55
2023/01/10 10:24:29;;;;;;;19.70;10.00;;;5.60;99.90;;;;;;5046742;28;20025;-54
2023/01/10 10:27:08;;;;;;;17.27;9.85;;;5.60;99.90;;;;;;5046468;28;20056;-54
2023/01/10 10:29:53;;;;;;;18.00;9.50;;;5.60;99.90;;;;;;5045867;28;20032;-55
2023/01/10 10:32:38;;;;;;;18.73;8.93;;;5.50;99.90;;;;;;5046569;28;20013;-54
2023/01/10 10:35:24;;;;;;;17.95;9.20;;;5.50;99.90;;;;;;5044974;28;20036;-54
2023/01/10 10:37:54;;;;;;;19.80;10.60;;;5.60;99.90;;;;;;5046426;28;20028;-55
2023/01/10 10:40:24;;;;;;;15.70;9.75;;;5.60;99.90;;;;;;5045798;28;20052;-57
2023/01/10 10:42:52;;;;;;;18.77;9.80;;;5.60;99.90;;;;;;5046477;28;20040;-56
2023/01/10 10:45:51;;;;;;;22.50;11.30;;;5.60;99.90;;;;;;5045350;28;20134;-53
2023/01/10 10:48:28;;;;;;;20.83;9.95;;;5.60;99.90;;;;;;5045274;28;20107;-55
2023/01/10 10:51:13;;;;;;;20.05;10.25;;;5.70;99.90;;;;;;5046145;28;20079;-53
2023/01/10 10:53:38;;;;;;;19.67;10.00;;;5.60;99.90;;;;;;5045770;28;20052;-53
2023/01/10 10:56:10;;;;;;;22.60;11.23;;;5.60;99.90;;;;;;5045469;28;20052;-54
2023/01/10 10:58:38;;;;;;;19.02;10.15;;;5.60;99.90;;;;;;5045444;28;20541;-52
2023/01/10 11:01:04;;;;;;;21.70;10.30;;;5.60;99.90;;;;;;5045973;28;20025;-56
2023/01/10 11:03:45;;;;;;;17.45;10.50;;;5.60;99.90;;;;;;5045632;28;20041;-55
2023/01/10 11:06:13;;;;;;;18.92;9.98;;;5.70;99.90;;;;;;5027809;28;20060;-53
2023/01/10 11:08:42;;;;;;;20.40;10.40;;;5.70;99.90;;;;;;5045851;28;20052;-53
2023/01/10 11:11:24;;;;;;;16.63;9.07;;;5.70;99.90;;;;;;5045272;28;20031;-54
2023/01/10 11:13:56;;;;;;;19.55;9.82;;;5.70;99.90;;;;;;5045957;28;20025;-55
2023/01/10 11:16:25;;;;;;;25.30;9.82;;;5.70;99.90;;;;;;5045523;28;20484;-54
2023/01/10 11:19:15;;;;;;;17.45;9.00;;;5.70;99.90;;;;;;5028248;28;20503;-52
2023/01/10 11:21:46;;;;;;;17.05;9.38;;;5.70;99.90;;;;;;5047141;28;20036;-53
2023/01/10 11:24:38;;;;;;;18.40;9.82;;;5.70;99.90;;;;;;5031858;28;20166;-52
2023/01/10 11:27:14;;;;;;;15.52;9.85;;;5.80;99.90;;;;;;5049635;28;20509;-53
2023/01/10 11:29:47;;;;;;;24.48;10.40;;;5.70;99.90;;;;;;5049572;28;20037;-56
2023/01/10 11:32:21;;;;;;;20.83;9.98;;;5.70;99.90;;;;;;5049267;28;20033;-55
2023/01/10 11:34:57;;;;;;;16.67;9.95;;;5.80;99.90;;;;;;5048335;28;20037;-53
2023/01/10 11:37:31;;;;;;;20.00;9.75;;;5.80;99.90;;;;;;5049132;28;20025;-56
2023/01/10 11:40:15;;;;;;;21.27;10.07;;;5.80;99.90;;;;;;5049492;28;20021;-55
2023/01/10 11:42:41;;;;;;;17.25;10.10;;;5.80;99.90;;;;;;5049553;28;20021;-57
2023/01/10 11:45:18;;;;;;;17.98;10.93;;;5.80;99.90;;;;;;5049001;28;20040;-53
2023/01/10 11:48:05;;;;;;;16.85;9.82;;;5.90;99.90;;;;;;5047012;28;20032;-54
2023/01/10 11:50:35;;;;;;;20.33;11.18;;;5.90;99.90;;;;;;5048951;28;20039;-56
2023/01/10 11:53:00;;;;;;;21.08;10.30;;;5.90;99.90;;;;;;5048721;28;20397;-56
2023/01/10 11:55:31;;;;;;;21.08;10.95;;;5.90;99.90;;;;;;5048455;28;20104;-56
2023/01/10 11:58:11;;;;;;;23.17;11.65;;;5.90;99.90;;;;;;5030919;28;20031;-53
2023/01/10 12:00:44;;;;;;;17.30;9.90;;;5.90;99.90;;;;;;5049009;28;20557;-56
2023/01/10 12:03:18;;;;;;;18.48;11.13;;;5.90;99.90;;;;;;5048342;28;20031;-55
2023/01/10 12:06:01;;;;;;;16.77;10.45;;;6.00;99.90;;;;;;5031114;28;20032;-56
2023/01/10 12:08:35;;;;;;;23.73;11.38;;;6.00;99.90;;;;;;5047578;28;20043;-53
2023/01/10 12:11:29;;;;;;;22.13;11.82;;;6.00;99.90;;;;;;5048492;28;20417;-57
2023/01/10 12:13:58;;;;;;;23.52;11.30;;;6.00;99.90;;;;;;5048531;28;20071;-54
2023/01/10 12:16:29;;;;;;;16.50;11.43;;;6.00;99.90;;;;;;5047417;28;20121;-56
2023/01/10 12:19:09;;;;;;;25.70;10.38;;;6.00;99.90;;;;;;5048765;28;20063;-53
2023/01/10 12:21:38;;;;;;;25.48;11.95;;;6.10;99.90;;;;;;5047779;28;20021;-55
2023/01/10 12:24:21;;;;;;;21.67;11.30;;;6.10;99.90;;;;;;5048205;28;20244;-55
2023/01/10 12:26:49;;;;;;;21.60;11.48;;;6.10;99.90;;;;;;5048041;28;20520;-54
2023/01/10 12:29:20;;;;;;;20.15;10.77;;;6.10;99.90;;;;;;5048577;28;20025;-56
2023/01/10 12:31:49;;;;;;;17.77;11.48;;;6.10;99.90;;;;;;5048332;28;20051;-54
2023/01/10 12:34:19;;;;;;;22.40;12.02;;;6.20;99.90;;;;;;5047454;28;20053;-55
2023/01/10 12:37:06;;;;;;;21.13;10.73;;;6.20;99.90;;;;;;5047004;28;20608;-55
2023/01/10 12:39:33;;;;;;;;;;;6.20;99.90;;;;;;5048731;28;20029;-56
2023/01/10 12:45:17;;;;;;;24.27;11.45;;;6.20;99.90;;;;;;5047681;28;20053;-56
2023/01/10 12:47:49;;;;;;;18.63;9.77;;;6.30;99.90;;;;;;5047478;28;20399;-55
2023/01/10 12:50:40;;;;;;;22.67;10.75;;;6.30;99.90;;;;;;5047882;28;20603;-55
2023/01/10 12:53:08;;;;;;;20.00;9.73;;;6.30;99.90;;;;;;5046683;28;20467;-54
2023/01/10 12:55:43;;;;;;;18.85;9.30;;;6.40;99.90;;;;;;5047343;28;20025;-52
2023/01/10 12:58:20;;;;;;;18.73;10.40;;;6.40;99.90;;;;;;5048044;28;20452;-55
2023/01/10 13:00:50;;;;;;;22.73;10.18;;;6.40;99.90;;;;;;5048505;28;20025;-52
2023/01/10 13:03:19;;;;;;;18.83;9.60;;;6.40;99.90;;;;;;5047569;28;20025;-53
2023/01/10 13:05:48;;;;;;;17.55;9.57;;;6.40;99.90;;;;;;5047594;28;20612;-55
2023/01/10 13:08:18;;;;;;;20.52;8.55;;;6.40;99.90;;;;;;5029393;28;20025;-55
2023/01/10 13:10:50;;;;;;;16.88;8.65;;;6.50;99.90;;;;;;5047909;28;20031;-54
2023/01/10 13:13:28;;;;;;;18.00;8.38;;;6.50;99.90;;;;;;5047428;28;20025;-52